Time;durP1;ratioP1;P1;durP2;ratioP2;P2;SDS_P1;SDS_P2;PMS_P1;PMS_P2;Temp;Humidity;BMP_temperature;BMP_pressure;BME280_temperature;BME280_humidity;BME280_pressure;Samples;Min_cycle;Max_cycle;Signal;HPM_P1;HPM_P2
2022/09/28 00:01:13;;;;;;;1.25;0.93;;;;;;;9.73;100.00;96754.69;2644823;27;20417;-81
2022/09/28 00:02:30;;;;;;;2.30;1.00;;;;;;;9.84;100.00;96754.94;2643481;27;20047;-80
2022/09/28 00:03:47;;;;;;;2.00;1.10;;;;;;;9.78;100.00;96750.06;2645120;27;20087;-80
2022/09/28 00:05:03;;;;;;;1.35;0.90;;;;;;;9.70;100.00;96755.69;2642576;27;20048;-81
2022/09/28 00:06:23;;;;;;;5.18;1.33;;;;;;;9.65;100.00;96746.38;2645166;27;20382;-79
2022/09/28 00:07:38;;;;;;;2.88;0.90;;;;;;;9.73;100.00;96749.44;2643818;27;20424;-80
2022/09/28 00:08:54;;;;;;;2.55;0.98;;;;;;;9.61;100.00;96748.31;2641095;27;20051;-82
2022/09/28 00:10:11;;;;;;;1.05;0.77;;;;;;;9.61;100.00;96745.69;2643236;27;20531;-80
2022/09/28 00:11:27;;;;;;;3.88;0.80;;;;;;;9.35;100.00;96747.84;2631681;28;20051;-79
2022/09/28 00:12:42;;;;;;;2.17;0.90;;;;;;;9.38;100.00;96749.47;2635848;27;20043;-81
2022/09/28 00:14:02;;;;;;;1.48;0.90;;;;;;;9.35;100.00;96745.25;2641776;27;20067;-80
2022/09/28 00:15:17;;;;;;;0.90;0.80;;;;;;;9.47;100.00;96749.03;2642621;27;20091;-81
2022/09/28 00:16:36;;;;;;;1.17;0.90;;;;;;;9.41;100.00;96749.31;2644266;27;20503;-80
2022/09/28 00:17:52;;;;;;;1.10;1.00;;;;;;;9.29;100.00;96749.03;2642663;27;20277;-80
2022/09/28 00:19:09;;;;;;;2.95;0.90;;;;;;;9.38;100.00;96739.03;2643421;27;20079;-83
2022/09/28 00:20:25;;;;;;;4.03;1.15;;;;;;;9.51;100.00;96747.09;2641293;27;20532;-81
2022/09/28 00:21:41;;;;;;;1.25;0.80;;;;;;;9.33;100.00;96741.88;2644290;27;20048;-81
2022/09/28 00:22:56;;;;;;;1.23;0.90;;;;;;;9.64;100.00;96744.69;2643919;27;20046;-80
2022/09/28 00:24:18;;;;;;;1.58;0.95;;;;;;;9.51;100.00;96740.09;2643812;27;20055;-80
2022/09/28 00:25:35;;;;;;;1.83;1.05;;;;;;;9.29;100.00;96745.56;2642401;27;20043;-80
2022/09/28 00:26:54;;;;;;;1.05;0.88;;;;;;;9.48;100.00;96740.25;2641582;27;20050;-85
2022/09/28 00:28:09;;;;;;;1.02;0.82;;;;;;;9.27;100.00;96736.97;2643314;27;20079;-81
2022/09/28 00:29:31;;;;;;;1.17;0.77;;;;;;;9.36;100.00;96740.88;2643447;27;20054;-80
2022/09/28 00:30:47;;;;;;;1.23;0.90;;;;;;;9.67;100.00;96727.09;2641803;27;20098;-80
2022/09/28 00:32:05;;;;;;;0.82;0.80;;;;;;;9.46;100.00;96731.66;2643267;27;20043;-80
2022/09/28 00:33:21;;;;;;;0.70;0.70;;;;;;;9.50;100.00;96729.72;2640989;27;20044;-81
2022/09/28 00:34:41;;;;;;;1.38;0.80;;;;;;;9.60;100.00;96726.56;2642924;27;20046;-80
2022/09/28 00:35:57;;;;;;;1.00;0.90;;;;;;;9.62;100.00;96726.47;2643383;27;20050;-81
2022/09/28 00:37:13;;;;;;;1.42;0.90;;;;;;;9.22;100.00;96726.75;2641747;27;20099;-80
2022/09/28 00:38:29;;;;;;;1.63;0.98;;;;;;;9.10;100.00;96725.59;2643090;27;20503;-80
2022/09/28 00:39:46;;;;;;;1.05;0.80;;;;;;;9.41;100.00;96721.44;2642493;27;20044;-80
2022/09/28 00:41:04;;;;;;;1.33;0.70;;;;;;;9.35;100.00;96713.91;2643121;27;20126;-82
2022/09/28 00:42:23;;;;;;;1.25;0.98;;;;;;;9.42;100.00;96715.28;2641017;27;20058;-81
2022/09/28 00:43:39;;;;;;;0.77;0.75;;;;;;;9.38;100.00;96719.00;2643212;27;20055;-80
2022/09/28 00:44:56;;;;;;;1.10;0.90;;;;;;;9.32;100.00;96722.75;2642590;27;20059;-80
2022/09/28 00:46:23;;;;;;;1.55;0.85;;;;;;;9.38;100.00;96720.75;2641542;27;20043;-80
2022/09/28 00:47:50;;;;;;;1.85;0.70;;;;;;;9.36;100.00;96720.84;2641833;27;20052;-81
2022/09/28 00:49:14;;;;;;;1.73;0.70;;;;;;;9.42;100.00;96725.75;2643384;27;20052;-81
2022/09/28 00:50:35;;;;;;;1.48;1.00;;;;;;;9.33;100.00;96721.84;2641295;27;20206;-79
2022/09/28 00:51:50;;;;;;;3.55;0.90;;;;;;;9.50;100.00;96716.66;2631845;28;20058;-82
2022/09/28 00:53:14;;;;;;;1.73;0.80;;;;;;;9.42;100.00;96725.75;2634334;27;20058;-81
2022/09/28 00:54:30;;;;;;;2.33;0.80;;;;;;;9.27;100.00;96721.31;2641131;27;20050;-80
2022/09/28 00:55:53;;;;;;;0.70;0.70;;;;;;;9.45;100.00;96719.53;2642909;27;20662;-81
2022/09/28 00:57:08;;;;;;;;;;;;;;;9.50;100.00;96721.88;2642125;27;20044;-79
2022/09/28 00:58:28;;;;;;;0.90;0.80;;;;;;;9.47;100.00;96718.50;2641659;27;20294;-80
2022/09/28 00:59:44;;;;;;;2.17;0.80;;;;;;;9.26;100.00;96719.63;2643525;27;20104;-80
2022/09/28 01:01:00;;;;;;;1.23;0.90;;;;;;;9.42;100.00;96710.06;2642091;27;20498;-80
2022/09/28 01:02:15;;;;;;;2.03;0.73;;;;;;;9.53;100.00;96716.53;2644655;27;20058;-81
2022/09/28 01:03:32;;;;;;;1.20;0.80;;;;;;;9.58;100.00;96715.34;2641315;27;20051;-80
2022/09/28 01:04:49;;;;;;;0.95;0.70;;;;;;;9.42;100.00;96717.91;2643392;27;20500;-80
2022/09/28 01:06:07;;;;;;;1.13;0.85;;;;;;;9.57;100.00;96710.19;2642311;27;20091;-80
2022/09/28 01:07:23;;;;;;;2.15;0.90;;;;;;;9.41;100.00;96713.59;2641599;27;20442;-81
2022/09/28 01:08:38;;;;;;;0.93;0.90;;;;;;;9.26;100.00;96714.38;2642963;27;20047;-80
2022/09/28 01:09:55;;;;;;;1.00;0.90;;;;;;;9.55;100.00;96715.50;2643118;27;20668;-81
2022/09/28 01:11:10;;;;;;;1.90;0.90;;;;;;;9.39;100.00;96725.03;2643048;27;21106;-82
2022/09/28 01:12:26;;;;;;;2.38;0.90;;;;;;;9.42;100.00;96720.53;2641290;27;20051;-81
2022/09/28 01:13:43;;;;;;;1.63;0.93;;;;;;;9.49;100.00;96718.44;2641634;27;20058;-81
2022/09/28 01:14:59;;;;;;;1.00;0.80;;;;;;;9.38;100.00;96713.78;2643068;27;20054;-81
2022/09/28 01:16:48;;;;;;;2.55;0.80;;;;;;;9.39;100.00;96714.59;2640767;27;20047;-86
2022/09/28 01:18:18;;;;;;;1.00;0.77;;;;;;;9.23;100.00;96717.16;2604894;27;20047;-85
2022/09/28 01:19:46;;;;;;;0.70;0.70;;;;;;;9.31;100.00;96712.38;2643268;27;20084;-82
2022/09/28 01:21:11;;;;;;;2.42;0.90;;;;;;;9.45;100.00;96709.91;2642044;27;20409;-81
2022/09/28 01:22:33;;;;;;;2.25;1.05;;;;;;;9.64;100.00;96713.34;2642126;27;20395;-80
2022/09/28 01:24:13;;;;;;;1.65;0.90;;;;;;;9.57;100.00;96713.66;2642988;27;20552;-81
2022/09/28 01:26:13;;;;;;;1.30;0.80;;;;;;;9.31;100.00;96709.75;2644111;27;20056;-81
2022/09/28 01:27:41;;;;;;;2.05;1.10;;;;;;;9.53;100.00;96711.28;2638110;27;20043;-81
2022/09/28 01:29:28;;;;;;;2.92;0.93;;;;;;;9.40;100.00;96705.84;2643943;27;20055;-81
2022/09/28 01:30:58;;;;;;;1.70;1.10;;;;;;;9.53;100.00;96711.28;2642904;28;20405;-81
2022/09/28 01:32:24;;;;;;;3.10;1.20;;;;;;;9.39;100.00;96709.38;2643614;28;20047;-82
2022/09/28 01:33:59;;;;;;;1.30;1.02;;;;;;;9.40;100.00;96709.31;2642014;28;20571;-85
2022/09/28 01:35:25;;;;;;;1.45;1.20;;;;;;;9.43;100.00;96711.75;2642492;27;20426;-81
2022/09/28 01:36:49;;;;;;;2.15;1.10;;;;;;;9.52;100.00;96710.44;2641112;27;20048;-80
2022/09/28 01:38:21;;;;;;;1.23;1.10;;;;;;;9.58;100.00;96709.28;2641771;27;20058;-82
2022/09/28 01:39:42;;;;;;;2.05;1.00;;;;;;;9.37;100.00;96717.31;2642169;27;20048;-81
2022/09/28 01:40:59;;;;;;;1.48;1.25;;;;;;;9.49;100.00;96707.13;2640903;27;20048;-85
2022/09/28 01:42:20;;;;;;;1.40;1.00;;;;;;;9.45;100.00;96707.28;2640830;27;20043;-81
2022/09/28 01:43:41;;;;;;;2.00;1.27;;;;;;;9.64;100.00;96705.50;2641722;27;20384;-81
2022/09/28 01:45:06;;;;;;;2.90;0.98;;;;;;;9.71;100.00;96712.09;2641933;27;20051;-80
2022/09/28 01:46:26;;;;;;;1.77;1.20;;;;;;;9.65;100.00;96715.03;2643574;27;20050;-80
2022/09/28 01:47:44;;;;;;;1.27;0.93;;;;;;;9.41;100.00;96710.13;2642254;28;20047;-80
2022/09/28 01:49:14;;;;;;;1.85;1.08;;;;;;;9.38;100.00;96707.69;2642907;28;20066;-80
2022/09/28 01:50:39;;;;;;;1.60;1.13;;;;;;;9.55;100.00;96706.81;2642881;28;20435;-80
2022/09/28 01:52:12;;;;;;;2.97;1.30;;;;;;;9.63;100.00;96707.25;2642234;28;20144;-80
2022/09/28 01:53:51;;;;;;;1.42;1.33;;;;;;;9.56;100.00;96700.69;2642656;28;20066;-79
2022/09/28 01:55:41;;;;;;;1.92;1.27;;;;;;;9.55;100.00;96705.03;2642808;28;20047;-81
2022/09/28 01:57:08;;;;;;;1.75;1.00;;;;;;;9.58;100.00;96709.28;2640246;28;20048;-84
2022/09/28 01:58:35;;;;;;;2.38;1.30;;;;;;;9.60;100.00;96707.41;2640957;28;20077;-81
2022/09/28 02:00:17;;;;;;;1.15;1.05;;;;;;;9.58;100.00;96701.44;2641417;28;20043;-84
2022/09/28 02:01:39;;;;;;;2.50;1.25;;;;;;;9.72;100.00;96703.34;2639017;28;20500;-83
2022/09/28 02:03:01;;;;;;;;;;;;;;;9.74;100.00;96698.88;2642396;28;20086;-80
2022/09/28 02:04:42;;;;;;;1.65;1.25;;;;;;;9.63;100.00;96695.97;2641320;28;19930;-81
2022/09/28 02:06:04;;;;;;;2.13;1.15;;;;;;;9.73;100.00;96684.94;2640324;28;20124;-83
2022/09/28 02:07:44;;;;;;;1.13;1.00;;;;;;;9.61;100.00;96696.03;2642395;28;20489;-83
2022/09/28 02:09:09;;;;;;;1.45;1.10;;;;;;;9.67;100.00;96690.50;2644035;28;20051;-81
2022/09/28 02:10:32;;;;;;;2.40;1.08;;;;;;;9.74;100.00;96686.63;2642589;28;20044;-81
2022/09/28 02:12:02;;;;;;;1.73;1.40;;;;;;;9.69;100.00;96685.19;2640890;28;20043;-81
2022/09/28 02:13:24;;;;;;;1.50;1.20;;;;;;;9.69;100.00;96687.81;2640877;28;20044;-80
2022/09/28 02:14:44;;;;;;;1.42;1.10;;;;;;;9.61;100.00;96688.19;2640951;28;20348;-81
2022/09/28 02:16:13;;;;;;;2.45;1.10;;;;;;;9.66;100.00;96688.81;2643180;28;20131;-80
2022/09/28 02:17:28;;;;;;;1.20;1.10;;;;;;;9.58;100.00;96685.75;2642445;28;20059;-80
2022/09/28 02:18:45;;;;;;;2.15;1.20;;;;;;;9.65;100.00;96684.53;2642794;28;20048;-82
2022/09/28 02:20:01;;;;;;;1.30;1.13;;;;;;;9.62;100.00;96684.66;2640781;28;20043;-81
2022/09/28 02:21:24;;;;;;;2.35;1.25;;;;;;;9.64;100.00;96684.59;2642781;28;20080;-85
2022/09/28 02:22:50;;;;;;;2.95;1.23;;;;;;;9.73;100.00;96681.50;2644491;27;20047;-82
2022/09/28 02:24:17;;;;;;;2.42;1.13;;;;;;;9.80;100.00;96680.25;2643417;27;20040;-80
2022/09/28 02:25:39;;;;;;;3.00;1.35;;;;;;;9.65;100.00;96681.91;2644032;27;20074;-80
2022/09/28 02:26:59;;;;;;;2.08;1.30;;;;;;;9.77;100.00;96671.72;2643099;27;20130;-82
2022/09/28 02:28:14;;;;;;;1.60;1.10;;;;;;;9.75;100.00;96679.66;2642651;27;20071;-81
2022/09/28 02:29:30;;;;;;;2.72;1.45;;;;;;;9.74;100.00;96672.75;2646113;27;20043;-81
2022/09/28 02:30:46;;;;;;;2.67;1.40;;;;;;;9.94;100.00;96663.84;2644814;27;20047;-83
2022/09/28 02:32:01;;;;;;;2.15;1.40;;;;;;;10.00;100.00;96666.09;2645337;27;20052;-83
2022/09/28 02:33:38;;;;;;;1.70;1.38;;;;;;;10.26;100.00;96663.81;2643882;27;20141;-81
2022/09/28 02:34:54;;;;;;;1.60;1.33;;;;;;;10.24;100.00;96663.06;2643752;27;20124;-81
2022/09/28 02:36:10;;;;;;;1.92;1.40;;;;;;;10.22;100.00;96657.09;2644507;27;20486;-81
2022/09/28 02:37:26;;;;;;;1.75;1.30;;;;;;;10.25;100.00;96656.06;2644550;27;20048;-81
2022/09/28 02:38:42;;;;;;;3.72;2.35;;;;;;;10.15;100.00;96651.34;2642715;27;20126;-82
2022/09/28 02:39:58;;;;;;;1.45;1.30;;;;;;;10.16;100.00;96660.03;2644349;27;20054;-81
2022/09/28 02:41:34;;;;;;;1.92;1.30;;;;;;;9.97;100.00;96655.81;2642468;27;20060;-82
2022/09/28 02:42:58;;;;;;;1.92;1.40;;;;;;;9.89;100.00;96660.59;2644610;27;20053;-81
2022/09/28 02:44:20;;;;;;;2.80;1.70;;;;;;;9.63;100.00;96660.22;2643298;27;20039;-79
2022/09/28 02:45:43;;;;;;;1.85;1.40;;;;;;;9.66;100.00;96659.22;2644648;27;20481;-80
2022/09/28 02:47:10;;;;;;;2.83;1.60;;;;;;;9.70;100.00;96658.13;2642342;27;20398;-80
2022/09/28 02:48:37;;;;;;;4.18;1.42;;;;;;;9.71;100.00;96671.13;2643237;27;20050;-82
2022/09/28 02:50:04;;;;;;;1.38;1.20;;;;;;;9.83;100.00;96668.78;2642701;27;20051;-79
2022/09/28 02:51:39;;;;;;;2.42;1.65;;;;;;;9.77;100.00;96669.97;2644326;27;20870;-81
2022/09/28 02:53:19;;;;;;;2.25;1.42;;;;;;;9.85;100.00;96665.19;2644054;27;20054;-82
2022/09/28 02:55:01;;;;;;;2.00;1.40;;;;;;;9.94;100.00;96668.19;2643690;27;20054;-81
2022/09/28 02:56:38;;;;;;;1.50;1.40;;;;;;;9.85;100.00;96651.25;2644050;27;20051;-81
2022/09/28 02:58:30;;;;;;;3.45;1.48;;;;;;;9.96;100.00;96653.28;2643898;27;20950;-83
2022/09/28 02:59:56;;;;;;;4.60;1.70;;;;;;;9.80;100.00;96650.66;2643317;27;20056;-79
2022/09/28 03:01:53;;;;;;;1.63;1.48;;;;;;;9.56;100.00;96653.66;2633131;28;20459;-82
2022/09/28 03:03:26;;;;;;;1.33;1.05;;;;;;;9.46;100.00;96648.06;2644065;27;20096;-80
2022/09/28 03:05:08;;;;;;;1.92;1.50;;;;;;;9.64;100.00;96648.88;2645271;27;20112;-83
2022/09/28 03:06:36;;;;;;;2.85;1.40;;;;;;;9.63;100.00;96648.94;2641866;27;20043;-79
2022/09/28 03:08:00;;;;;;;3.65;1.60;;;;;;;9.80;100.00;96648.06;2643596;27;20120;-79
2022/09/28 03:09:31;;;;;;;2.45;1.60;;;;;;;9.77;100.00;96654.28;2644602;27;20047;-82
2022/09/28 03:11:00;;;;;;;2.20;1.88;;;;;;;9.70;100.00;96652.91;2643886;27;20071;-80
2022/09/28 03:12:19;;;;;;;2.65;1.83;;;;;;;9.75;100.00;96661.34;2642307;27;20514;-79
2022/09/28 03:13:36;;;;;;;3.30;1.77;;;;;;;9.69;100.00;96662.53;2644598;27;20054;-80
2022/09/28 03:15:23;;;;;;;1.73;1.40;;;;;;;9.67;100.00;96656.53;2643908;27;20043;-79
2022/09/28 03:16:43;;;;;;;2.15;1.30;;;;;;;9.67;100.00;96663.53;2645086;27;20047;-79
2022/09/28 03:17:59;;;;;;;2.90;1.70;;;;;;;9.65;100.00;96661.00;2645558;27;20062;-80
2022/09/28 03:19:18;;;;;;;2.33;1.60;;;;;;;9.72;100.00;96664.97;2642573;27;20044;-79
2022/09/28 03:20:34;;;;;;;3.33;1.85;;;;;;;9.68;100.00;96667.81;2644238;27;20069;-80
2022/09/28 03:21:49;;;;;;;1.95;1.70;;;;;;;9.60;100.00;96668.22;2645888;27;20069;-79
2022/09/28 03:23:05;;;;;;;2.08;1.45;;;;;;;9.69;100.00;96667.75;2645022;27;20052;-80
2022/09/28 03:24:21;;;;;;;2.15;1.60;;;;;;;9.70;100.00;96663.34;2642778;27;20047;-79
2022/09/28 03:25:36;;;;;;;3.90;1.48;;;;;;;9.75;100.00;96659.56;2644228;27;20058;-82
2022/09/28 03:26:52;;;;;;;3.35;1.70;;;;;;;9.70;100.00;96651.16;2641905;27;20406;-80
2022/09/28 03:28:08;;;;;;;1.95;1.67;;;;;;;9.78;100.00;96653.34;2645234;27;20051;-80
2022/09/28 03:29:23;;;;;;;2.47;1.63;;;;;;;9.80;100.00;96655.88;2645834;27;20050;-80
2022/09/28 03:30:39;;;;;;;4.15;1.90;;;;;;;9.81;100.00;96647.13;2633068;28;20043;-80
2022/09/28 03:31:54;;;;;;;3.45;1.67;;;;;;;9.96;100.00;96646.28;2635274;27;20410;-80
2022/09/28 03:33:10;;;;;;;2.28;1.73;;;;;;;9.92;100.00;96649.16;2643692;27;20043;-85
2022/09/28 03:34:25;;;;;;;3.80;1.70;;;;;;;9.94;100.00;96647.28;2644399;27;20047;-81
2022/09/28 03:35:41;;;;;;;2.80;1.48;;;;;;;10.09;100.00;96635.16;2643601;27;20051;-80
2022/09/28 03:36:56;;;;;;;2.17;1.77;;;;;;;9.95;100.00;96638.50;2643544;27;20138;-80
2022/09/28 03:38:13;;;;;;;3.15;1.60;;;;;;;9.96;100.00;96634.97;2644108;27;20079;-80
2022/09/28 03:39:28;;;;;;;2.35;1.85;;;;;;;9.89;100.00;96634.47;2643103;27;20052;-81
2022/09/28 03:40:51;;;;;;;2.72;2.15;;;;;;;9.80;100.00;96627.13;2643231;27;20058;-81
2022/09/28 03:42:07;;;;;;;4.13;1.70;;;;;;;9.80;100.00;96629.75;2643306;27;20136;-80
2022/09/28 03:43:24;;;;;;;1.88;1.65;;;;;;;9.82;100.00;96633.13;2643306;27;20078;-80
2022/09/28 03:44:39;;;;;;;3.20;1.65;;;;;;;9.75;100.00;96624.78;2643105;27;20050;-80
2022/09/28 03:45:57;;;;;;;2.40;1.92;;;;;;;9.65;100.00;96620.97;2631050;28;20880;-80
2022/09/28 03:47:14;;;;;;;3.53;1.80;;;;;;;9.43;100.00;96624.72;2636065;27;20514;-81
2022/09/28 03:48:32;;;;;;;2.28;1.73;;;;;;;9.49;100.00;96626.16;2644908;27;20063;-81
2022/09/28 03:49:48;;;;;;;3.88;1.70;;;;;;;9.52;100.00;96618.16;2643052;27;20071;-81
2022/09/28 03:51:08;;;;;;;4.65;1.80;;;;;;;9.62;100.00;96621.97;2632225;28;20047;-83
2022/09/28 03:52:23;;;;;;;1.90;1.42;;;;;;;9.56;100.00;96617.06;2637032;27;20043;-81
2022/09/28 03:53:39;;;;;;;2.45;1.70;;;;;;;9.65;100.00;96613.97;2641891;27;20512;-81
2022/09/28 03:54:55;;;;;;;2.58;1.55;;;;;;;9.52;100.00;96605.09;2641671;27;20100;-81
2022/09/28 03:56:12;;;;;;;1.80;1.60;;;;;;;9.32;100.00;96607.84;2643166;27;20040;-81
2022/09/28 03:57:28;;;;;;;2.35;1.60;;;;;;;9.25;100.00;96598.63;2643836;27;20047;-83
2022/09/28 03:58:43;;;;;;;3.05;1.75;;;;;;;9.26;100.00;96602.94;2642910;27;20055;-82
2022/09/28 03:59:59;;;;;;;2.35;1.40;;;;;;;9.26;100.00;96596.88;2641955;27;20051;-80
2022/09/28 04:01:15;;;;;;;2.67;1.60;;;;;;;9.23;100.00;96599.66;2644127;27;20103;-80
2022/09/28 04:02:30;;;;;;;3.22;1.90;;;;;;;9.12;100.00;96601.06;2644879;27;20047;-80
2022/09/28 04:03:46;;;;;;;1.95;1.65;;;;;;;9.26;100.00;96599.50;2645169;27;20145;-83
2022/09/28 04:05:02;;;;;;;3.55;1.83;;;;;;;9.16;100.00;96594.75;2641977;27;20096;-81
2022/09/28 04:06:17;;;;;;;2.00;1.60;;;;;;;9.09;100.00;96593.38;2642811;27;20042;-82
2022/09/28 04:07:33;;;;;;;2.55;1.95;;;;;;;9.08;100.00;96591.69;2643750;27;20138;-82
2022/09/28 04:08:49;;;;;;;2.40;1.55;;;;;;;9.18;100.00;96584.22;2643582;27;20063;-82
2022/09/28 04:10:05;;;;;;;3.70;2.20;;;;;;;9.24;100.00;96581.28;2642217;27;20468;-82
2022/09/28 04:11:20;;;;;;;2.25;1.73;;;;;;;9.09;100.00;96590.78;2643862;27;20217;-82
2022/09/28 04:12:36;;;;;;;3.05;1.80;;;;;;;9.14;100.00;96574.84;2645387;27;20124;-81
2022/09/28 04:13:52;;;;;;;4.07;1.80;;;;;;;9.12;100.00;96574.09;2643707;27;20048;-84
2022/09/28 04:15:08;;;;;;;2.78;1.85;;;;;;;9.08;100.00;96573.44;2643501;27;20047;-82
2022/09/28 04:16:23;;;;;;;2.00;1.80;;;;;;;9.11;100.00;96575.88;2641839;27;20067;-87
2022/09/28 04:17:39;;;;;;;2.92;1.75;;;;;;;9.01;100.00;96579.88;2644145;27;20061;-85
2022/09/28 04:18:56;;;;;;;5.55;1.85;;;;;;;9.16;100.00;96571.25;2642571;27;20050;-81
2022/09/28 04:20:12;;;;;;;2.53;1.67;;;;;;;8.94;100.00;96575.88;2643723;27;20054;-81
2022/09/28 04:21:28;;;;;;;2.95;2.05;;;;;;;8.99;100.00;96577.34;2641144;27;20596;-88
2022/09/28 04:22:43;;;;;;;3.55;1.90;;;;;;;8.95;100.00;96577.59;2642304;27;20460;-82
2022/09/28 04:23:59;;;;;;;2.47;1.70;;;;;;;9.10;100.00;96578.56;2643625;27;20413;-81
2022/09/28 04:25:15;;;;;;;3.17;1.67;;;;;;;9.02;100.00;96565.91;2642901;27;20043;-81
2022/09/28 04:26:30;;;;;;;3.70;1.70;;;;;;;9.03;100.00;96568.44;2642080;27;20067;-80
2022/09/28 04:29:22;;;;;;;1.55;1.40;;;;;;;8.92;100.00;96567.28;2643092;27;20500;-81
2022/09/28 04:30:37;;;;;;;2.90;1.65;;;;;;;8.94;100.00;96576.75;2644137;27;20553;-81
2022/09/28 04:31:54;;;;;;;1.80;1.58;;;;;;;9.06;100.00;96566.59;2641727;27;20055;-79
2022/09/28 04:33:09;;;;;;;3.17;1.67;;;;;;;9.01;100.00;96564.22;2641345;27;20055;-80
2022/09/28 04:34:26;;;;;;;4.13;1.70;;;;;;;9.05;100.00;96565.72;2641030;27;20047;-80
2022/09/28 04:35:41;;;;;;;2.55;1.80;;;;;;;9.13;100.00;96566.19;2641650;27;20218;-81
2022/09/28 04:36:57;;;;;;;2.90;1.80;;;;;;;8.96;100.00;96576.66;2643390;27;20505;-81
2022/09/28 04:38:12;;;;;;;3.10;1.83;;;;;;;9.11;100.00;96568.03;2643125;27;20506;-81
2022/09/28 04:39:28;;;;;;;2.55;1.70;;;;;;;9.16;100.00;96563.41;2643937;27;20043;-81
2022/09/28 04:40:43;;;;;;;3.38;1.55;;;;;;;9.36;100.00;96565.91;2641509;27;20062;-81
2022/09/28 04:42:00;;;;;;;3.63;1.95;;;;;;;9.18;100.00;96564.16;2642867;27;20047;-80
2022/09/28 04:43:15;;;;;;;2.97;1.88;;;;;;;9.15;100.00;96564.34;2641750;27;20082;-80
2022/09/28 04:44:31;;;;;;;2.65;1.80;;;;;;;9.15;100.00;96566.94;2642531;27;20040;-81
2022/09/28 04:45:46;;;;;;;2.83;1.80;;;;;;;9.22;100.00;96567.47;2644459;27;20075;-81
2022/09/28 04:47:02;;;;;;;4.65;1.60;;;;;;;9.11;100.00;96556.75;2643419;27;20047;-81
2022/09/28 04:48:17;;;;;;;2.10;1.77;;;;;;;8.90;100.00;96557.78;2642814;27;20051;-82
2022/09/28 04:49:35;;;;;;;4.63;1.90;;;;;;;8.92;100.00;96554.25;2640839;27;20130;-81
2022/09/28 04:50:55;;;;;;;2.53;1.70;;;;;;;8.85;100.00;96554.56;2643536;27;20054;-83
2022/09/28 04:52:11;;;;;;;4.45;1.75;;;;;;;8.82;100.00;96561.72;2642312;27;20047;-81
2022/09/28 04:53:27;;;;;;;4.03;1.90;;;;;;;8.88;100.00;96561.41;2642947;27;20046;-82
2022/09/28 04:54:42;;;;;;;3.55;1.60;;;;;;;8.64;100.00;96560.88;2641421;27;20055;-82
2022/09/28 04:56:00;;;;;;;3.55;1.70;;;;;;;8.87;100.00;96559.69;2641715;27;20051;-81
2022/09/28 04:57:16;;;;;;;2.67;1.77;;;;;;;8.94;100.00;96560.22;2641396;27;20091;-82
2022/09/28 04:58:33;;;;;;;2.97;1.70;;;;;;;9.12;100.00;96553.19;2642789;27;20039;-81
2022/09/28 04:59:49;;;;;;;2.72;1.80;;;;;;;8.93;100.00;96553.31;2641937;27;20082;-82
2022/09/28 05:01:09;;;;;;;3.05;1.70;;;;;;;8.83;100.00;96558.19;2641095;27;20074;-82
2022/09/28 05:02:24;;;;;;;3.75;2.00;;;;;;;8.89;100.00;96558.69;2643655;27;20485;-81
2022/09/28 05:03:41;;;;;;;2.65;2.15;;;;;;;9.03;100.00;96552.78;2642072;27;20050;-82
2022/09/28 05:04:57;;;;;;;3.63;1.60;;;;;;;9.06;100.00;96556.16;2642244;27;20051;-83
2022/09/28 05:06:14;;;;;;;3.92;1.67;;;;;;;9.17;100.00;96557.25;2640844;27;20040;-82
2022/09/28 05:07:30;;;;;;;1.77;1.60;;;;;;;9.04;100.00;96554.47;2644365;27;20047;-81
2022/09/28 05:08:45;;;;;;;2.55;1.70;;;;;;;9.07;100.00;96548.22;2642917;27;20075;-82
2022/09/28 05:10:01;;;;;;;2.78;1.98;;;;;;;9.11;100.00;96554.13;2640791;27;20051;-82
2022/09/28 05:11:18;;;;;;;3.25;1.65;;;;;;;8.88;100.00;96559.63;2643557;27;20051;-82
2022/09/28 05:12:34;;;;;;;4.82;2.20;;;;;;;9.04;100.00;96551.84;2642841;27;20056;-81
2022/09/28 05:13:49;;;;;;;2.40;1.77;;;;;;;9.06;100.00;96554.38;2641813;27;20043;-82
2022/09/28 05:15:05;;;;;;;3.30;2.00;;;;;;;9.13;100.00;96552.28;2641614;27;20051;-82
2022/09/28 05:16:21;;;;;;;6.05;2.00;;;;;;;9.14;100.00;96552.22;2640727;27;20054;-82
2022/09/28 05:17:37;;;;;;;3.42;2.05;;;;;;;9.26;100.00;96555.94;2641385;27;20050;-82
2022/09/28 05:18:56;;;;;;;3.38;2.00;;;;;;;9.01;100.00;96557.25;2641943;27;20043;-81
2022/09/28 05:20:12;;;;;;;3.08;1.70;;;;;;;8.98;100.00;96546.94;2643242;27;20047;-82
2022/09/28 05:21:28;;;;;;;3.00;1.70;;;;;;;9.07;100.00;96544.78;2642681;27;20039;-82
2022/09/28 05:22:44;;;;;;;2.58;1.70;;;;;;;9.00;100.00;96541.66;2641820;27;20179;-81
2022/09/28 05:23:59;;;;;;;3.35;1.95;;;;;;;8.97;100.00;96534.81;2642728;27;20052;-81
2022/09/28 05:25:15;;;;;;;2.58;1.77;;;;;;;9.12;100.00;96541.00;2642188;27;20459;-81
2022/09/28 05:26:31;;;;;;;2.80;1.75;;;;;;;8.92;100.00;96535.97;2642095;27;20116;-81
2022/09/28 05:27:47;;;;;;;3.70;2.00;;;;;;;9.04;100.00;96543.16;2641472;27;20522;-81
2022/09/28 05:29:02;;;;;;;3.22;2.17;;;;;;;8.76;100.00;96542.84;2641748;27;20160;-82
2022/09/28 05:30:18;;;;;;;4.03;2.00;;;;;;;8.72;100.00;96543.06;2639894;27;20087;-80
2022/09/28 05:31:34;;;;;;;3.45;1.80;;;;;;;9.12;100.00;96537.53;2640237;27;20059;-82
2022/09/28 05:32:50;;;;;;;3.30;1.90;;;;;;;9.19;100.00;96534.53;2642037;27;20039;-81
2022/09/28 05:34:05;;;;;;;2.65;1.90;;;;;;;9.14;100.00;96536.53;2641777;27;20474;-81
2022/09/28 05:35:22;;;;;;;1.92;1.52;;;;;;;9.09;100.00;96528.13;2642544;27;20046;-81
2022/09/28 05:36:39;;;;;;;2.15;1.50;;;;;;;9.22;100.00;96530.06;2639874;27;20051;-83
2022/09/28 05:37:55;;;;;;;2.78;1.60;;;;;;;9.18;100.00;96535.44;2638684;27;20184;-82
2022/09/28 05:39:13;;;;;;;2.20;1.70;;;;;;;9.15;100.00;96534.75;2630009;28;20475;-81
2022/09/28 05:40:29;;;;;;;2.97;1.90;;;;;;;9.23;100.00;96527.38;2635111;27;20050;-80
2022/09/28 05:41:45;;;;;;;2.17;1.88;;;;;;;9.26;100.00;96531.59;2629300;28;20520;-82
2022/09/28 05:43:01;;;;;;;2.80;1.90;;;;;;;9.35;100.00;96520.63;2621131;28;20044;-83
2022/09/28 05:44:16;;;;;;;6.70;2.53;;;;;;;9.42;100.00;96526.38;2635057;28;20045;-89
2022/09/28 05:45:32;;;;;;;3.58;1.80;;;;;;;9.45;100.00;96521.84;2640428;27;20047;-84
2022/09/28 05:46:47;;;;;;;3.42;2.00;;;;;;;9.36;100.00;96521.50;2641801;28;20051;-82
2022/09/28 05:48:03;;;;;;;3.35;2.17;;;;;;;9.31;100.00;96524.34;2641437;28;20058;-84
2022/09/28 05:49:18;;;;;;;6.72;2.03;;;;;;;9.25;100.00;96520.28;2640829;27;20077;-81
2022/09/28 05:50:34;;;;;;;2.83;2.00;;;;;;;9.02;100.00;96516.31;2642726;28;20054;-82
2022/09/28 05:51:50;;;;;;;2.85;2.50;;;;;;;9.22;100.00;96510.03;2641956;28;20043;-86
2022/09/28 05:53:07;;;;;;;2.60;1.88;;;;;;;9.22;100.00;96507.41;2640384;28;20113;-83
2022/09/28 05:54:23;;;;;;;2.78;1.95;;;;;;;9.11;100.00;96510.59;2638668;28;20043;-83
2022/09/28 05:55:39;;;;;;;4.78;2.33;;;;;;;9.17;100.00;96506.81;2641055;28;20055;-84
2022/09/28 05:56:54;;;;;;;3.75;2.30;;;;;;;9.27;100.00;96507.16;2641338;27;20634;-84
2022/09/28 05:58:10;;;;;;;3.78;2.40;;;;;;;9.21;100.00;96510.94;2644859;27;20044;-84
2022/09/28 05:59:25;;;;;;;2.63;1.90;;;;;;;9.08;100.00;96497.72;2645024;27;20042;-87
2022/09/28 06:00:42;;;;;;;3.60;2.20;;;;;;;9.12;100.00;96498.38;2643980;27;20133;-85
2022/09/28 06:01:57;;;;;;;5.47;3.05;;;;;;;9.11;100.00;96496.69;2642743;27;20409;-82
2022/09/28 06:03:13;;;;;;;5.15;2.60;;;;;;;8.86;100.00;96490.16;2642641;27;20150;-83
2022/09/28 06:04:29;;;;;;;3.67;2.70;;;;;;;8.86;100.00;96488.41;2643470;27;20130;-80
2022/09/28 06:05:46;;;;;;;4.78;2.45;;;;;;;9.10;100.00;96479.34;2642395;27;20051;-80
2022/09/28 06:07:01;;;;;;;5.63;2.95;;;;;;;9.05;100.00;96479.59;2643433;27;20048;-81
2022/09/28 06:08:24;;;;;;;3.78;2.53;;;;;;;9.10;100.00;96476.75;2644173;27;20047;-83
2022/09/28 06:09:40;;;;;;;5.05;2.75;;;;;;;9.25;100.00;96477.69;2643858;27;20039;-82
2022/09/28 06:10:59;;;;;;;4.47;2.90;;;;;;;9.01;100.00;96478.06;2645071;27;20055;-82
2022/09/28 06:12:14;;;;;;;4.53;2.80;;;;;;;9.02;100.00;96480.63;2643769;27;20045;-85
2022/09/28 06:13:30;;;;;;;4.57;3.03;;;;;;;8.87;100.00;96477.03;2632014;28;20589;-82
2022/09/28 06:14:47;;;;;;;4.93;3.08;;;;;;;8.74;100.00;96476.84;2634476;27;20423;-85
2022/09/28 06:16:03;;;;;;;4.93;2.70;;;;;;;8.76;100.00;96488.06;2640796;27;20056;-82
2022/09/28 06:17:19;;;;;;;6.63;3.40;;;;;;;8.56;100.00;96475.19;2629176;28;20052;-80
2022/09/28 06:18:35;;;;;;;6.47;2.72;;;;;;;8.85;100.00;96471.06;2622497;28;20051;-82